createdAt,value
2018-10-16T00:02:05.121Z,10.85
2018-10-16T00:04:33.619Z,12.23
2018-10-16T00:07:02.206Z,11.68
2018-10-16T00:09:30.787Z,11.22
2018-10-16T00:12:09.886Z,11.88
2018-10-16T00:14:38.525Z,12.13
2018-10-16T00:17:07.238Z,11.30
2018-10-16T00:19:35.790Z,10.60
2018-10-16T00:22:04.530Z,10.60
2018-10-16T00:24:33.102Z,11.68
2018-10-16T00:27:01.614Z,11.85
2018-10-16T00:29:30.223Z,12.28
2018-10-16T00:31:58.788Z,11.03
2018-10-16T00:34:27.359Z,11.20
2018-10-16T00:36:56.046Z,10.68
2018-10-16T00:39:24.722Z,12.65
2018-10-16T00:41:53.264Z,10.13
2018-10-16T00:44:21.926Z,10.15
2018-10-16T00:46:50.653Z,12.78
2018-10-16T00:49:19.208Z,9.70
2018-10-16T00:51:47.926Z,9.73
2018-10-16T00:54:16.574Z,11.03
2018-10-16T00:56:45.112Z,11.20
2018-10-16T00:59:13.678Z,12.03
2018-10-16T01:01:42.176Z,10.72
2018-10-16T01:04:10.753Z,9.93
2018-10-16T01:06:39.310Z,10.23
2018-10-16T01:09:09.690Z,11.20
2018-10-16T01:11:38.482Z,10.87
2018-10-16T01:14:07.035Z,13.15
2018-10-16T01:16:35.631Z,10.08
2018-10-16T01:19:04.213Z,11.63
2018-10-16T01:21:32.798Z,10.03
2018-10-16T01:24:01.307Z,10.88
2018-10-16T01:26:29.832Z,9.50
2018-10-16T01:28:58.428Z,11.28
2018-10-16T01:31:26.923Z,10.63
2018-10-16T01:33:55.430Z,13.30
2018-10-16T01:36:24.054Z,10.90
2018-10-16T01:38:52.554Z,11.75
2018-10-16T01:41:21.154Z,11.78
2018-10-16T01:43:50.397Z,11.60
2018-10-16T01:46:18.956Z,10.75
2018-10-16T01:48:47.472Z,10.28
2018-10-16T01:51:15.998Z,10.15
2018-10-16T01:53:44.622Z,10.63
2018-10-16T01:56:13.314Z,10.82
2018-10-16T01:58:41.897Z,10.55
2018-10-16T02:01:10.531Z,10.63
2018-10-16T02:03:39.043Z,11.05
2018-10-16T02:06:07.623Z,11.22
2018-10-16T02:08:36.135Z,11.97
2018-10-16T02:11:04.769Z,12.43
2018-10-16T02:13:33.245Z,12.07
2018-10-16T02:16:01.818Z,10.30
2018-10-16T02:18:30.388Z,10.03
2018-10-16T02:20:58.995Z,11.20
2018-10-16T02:23:27.593Z,11.28
2018-10-16T02:25:56.108Z,9.73
2018-10-16T02:28:24.838Z,12.20
2018-10-16T02:30:53.392Z,10.55
2018-10-16T02:33:21.887Z,11.33
2018-10-16T02:35:50.402Z,10.15
2018-10-16T02:38:18.941Z,11.75
2018-10-16T02:40:47.528Z,9.53
2018-10-16T02:43:16.052Z,12.58
2018-10-16T02:45:44.617Z,11.30
2018-10-16T02:48:13.165Z,10.27
2018-10-16T02:50:41.712Z,10.90
2018-10-16T02:53:10.341Z,11.65
2018-10-16T02:55:38.881Z,10.93
2018-10-16T02:58:07.475Z,10.80
2018-10-16T03:00:36.096Z,11.97
2018-10-16T03:03:04.712Z,11.73
2018-10-16T03:05:33.326Z,10.18
2018-10-16T03:08:01.884Z,12.60
2018-10-16T03:10:30.393Z,10.05
2018-10-16T03:12:58.966Z,10.97
2018-10-16T03:15:27.534Z,12.33
2018-10-16T03:17:56.065Z,10.75
2018-10-16T03:20:24.664Z,11.18
2018-10-16T03:22:53.206Z,13.15
2018-10-16T03:25:21.732Z,11.00
2018-10-16T03:27:50.288Z,10.95
2018-10-16T03:30:18.803Z,11.50
2018-10-16T03:32:47.341Z,10.03
2018-10-16T03:35:15.949Z,11.63
2018-10-16T03:37:44.512Z,10.00
2018-10-16T03:40:13.337Z,12.93
2018-10-16T03:42:42.580Z,11.12
2018-10-16T03:45:12.325Z,11.75
2018-10-16T03:47:41.481Z,10.20
2018-10-16T03:50:10.624Z,11.12
2018-10-16T03:52:39.321Z,12.18
2018-10-16T03:55:08.316Z,10.08
2018-10-16T03:57:37.115Z,11.43
2018-10-16T04:00:06.127Z,10.65
2018-10-16T04:02:35.289Z,11.83
2018-10-16T04:05:03.956Z,11.60
2018-10-16T04:07:32.585Z,11.60
2018-10-16T04:10:01.242Z,10.80
2018-10-16T04:12:29.794Z,11.28
2018-10-16T04:14:58.317Z,10.50
2018-10-16T04:17:26.910Z,11.83
2018-10-16T04:19:55.628Z,12.78
2018-10-16T04:22:24.262Z,12.53
2018-10-16T04:24:52.862Z,11.05
2018-10-16T04:27:21.429Z,12.03
2018-10-16T04:29:50.040Z,11.43
2018-10-16T04:32:18.551Z,12.68
2018-10-16T04:34:46.991Z,13.50
2018-10-16T04:37:15.748Z,10.55
2018-10-16T04:39:44.267Z,11.15
2018-10-16T04:42:12.851Z,13.78
2018-10-16T04:44:41.328Z,12.80
2018-10-16T04:47:10.025Z,12.83
2018-10-16T04:49:38.691Z,12.47
2018-10-16T04:52:07.238Z,12.53
2018-10-16T04:54:35.901Z,11.87
2018-10-16T04:57:04.807Z,11.30
2018-10-16T04:59:33.304Z,13.05
2018-10-16T05:02:01.976Z,12.05
2018-10-16T05:04:30.489Z,12.27
2018-10-16T05:06:59.645Z,11.30
2018-10-16T05:09:28.246Z,13.32
2018-10-16T05:11:56.880Z,13.25
2018-10-16T05:14:25.417Z,12.23
2018-10-16T05:16:54.078Z,12.23
2018-10-16T05:19:22.637Z,13.30
2018-10-16T05:21:51.284Z,13.72
2018-10-16T05:24:19.863Z,15.85
2018-10-16T05:26:48.420Z,13.78
2018-10-16T05:29:17.119Z,12.90
2018-10-16T05:31:45.705Z,12.90
2018-10-16T05:34:14.341Z,12.90
2018-10-16T05:36:42.893Z,15.85
2018-10-16T05:39:12.727Z,12.45
2018-10-16T05:41:41.467Z,14.87
2018-10-16T05:44:10.112Z,12.65
2018-10-16T05:46:38.754Z,13.98
2018-10-16T05:49:07.436Z,13.83
2018-10-16T05:51:36.150Z,13.40
2018-10-16T05:54:04.816Z,14.68
2018-10-16T05:56:33.403Z,12.95
2018-10-16T05:59:02.005Z,13.43
2018-10-16T06:01:30.717Z,13.38
2018-10-16T06:03:59.351Z,15.98
2018-10-16T06:06:28.823Z,13.08
2018-10-16T06:08:57.418Z,14.65
2018-10-16T06:11:25.964Z,15.38
2018-10-16T06:13:54.582Z,14.28
2018-10-16T06:16:23.159Z,15.13
2018-10-16T06:18:51.828Z,13.40
2018-10-16T06:21:20.383Z,14.35
2018-10-16T06:23:49.037Z,13.95
2018-10-16T06:26:17.707Z,14.55
2018-10-16T06:28:46.287Z,13.22
2018-10-16T06:31:14.893Z,16.63
2018-10-16T06:33:43.584Z,17.70
2018-10-16T06:36:12.177Z,16.85
2018-10-16T06:38:40.700Z,18.13
2018-10-16T06:41:09.378Z,16.25
2018-10-16T06:43:37.893Z,19.00
2018-10-16T06:46:06.535Z,19.23
2018-10-16T06:48:35.423Z,18.73
2018-10-16T06:51:03.828Z,16.80
2018-10-16T06:53:32.755Z,14.58
2018-10-16T06:56:01.346Z,20.27
2018-10-16T06:58:30.804Z,14.58
2018-10-16T07:00:59.533Z,14.50
2018-10-16T07:03:28.202Z,13.98
2018-10-16T07:05:56.867Z,15.25
2018-10-16T07:08:25.518Z,13.63
2018-10-16T07:10:54.191Z,13.90
2018-10-16T07:13:22.682Z,12.23
2018-10-16T07:15:51.367Z,12.28
2018-10-16T07:18:19.945Z,13.28
2018-10-16T07:20:48.527Z,12.35
2018-10-16T07:23:17.227Z,12.98
2018-10-16T07:25:45.850Z,15.03
2018-10-16T07:28:14.419Z,12.90
2018-10-16T07:30:43.073Z,11.97
2018-10-16T07:33:12.043Z,14.18
2018-10-16T07:35:40.623Z,13.95
2018-10-16T07:38:09.408Z,11.78
2018-10-16T07:40:37.883Z,10.78
2018-10-16T07:43:06.507Z,12.47
2018-10-16T07:45:35.100Z,12.43
2018-10-16T07:48:03.747Z,13.85
2018-10-16T07:50:32.291Z,12.75
2018-10-16T07:53:00.871Z,13.08
2018-10-16T07:55:29.484Z,12.03
2018-10-16T07:57:58.075Z,11.93
2018-10-16T08:00:26.789Z,12.73
2018-10-16T08:02:55.400Z,11.53
2018-10-16T08:05:23.951Z,13.28
2018-10-16T08:07:52.643Z,10.98
2018-10-16T08:10:21.396Z,11.87
2018-10-16T08:12:50.079Z,11.88
2018-10-16T08:15:18.667Z,11.93
2018-10-16T08:17:47.286Z,11.88
2018-10-16T08:20:16.854Z,9.95
2018-10-16T08:22:45.457Z,11.00
2018-10-16T08:25:14.015Z,9.95
2018-10-16T08:27:42.610Z,9.77
2018-10-16T08:30:11.381Z,9.45
2018-10-16T08:32:40.246Z,8.77
2018-10-16T08:35:09.090Z,9.28
2018-10-16T08:39:51.896Z,10.03
2018-10-16T08:42:34.024Z,8.55
2018-10-16T08:45:15.488Z,7.15
2018-10-16T08:47:55.555Z,8.25
2018-10-16T08:50:36.737Z,8.85
2018-10-16T08:53:05.349Z,7.65
2018-10-16T08:55:34.514Z,6.33
2018-10-16T08:58:03.979Z,7.75
2018-10-16T09:00:33.002Z,7.62
2018-10-16T09:03:01.801Z,6.00
2018-10-16T09:05:31.084Z,7.42
2018-10-16T09:07:59.668Z,6.95
2018-10-16T09:10:28.464Z,6.75
2018-10-16T09:12:57.018Z,7.42
2018-10-16T09:15:25.722Z,6.57
2018-10-16T09:17:54.272Z,6.00
2018-10-16T09:20:22.908Z,6.70
2018-10-16T09:22:51.511Z,7.92
2018-10-16T09:25:20.075Z,6.97
2018-10-16T09:27:48.769Z,8.73
2018-10-16T09:30:17.369Z,6.12
2018-10-16T09:32:45.877Z,5.62
2018-10-16T09:35:14.539Z,7.20
2018-10-16T09:37:43.222Z,5.20
2018-10-16T09:40:12.882Z,6.03
2018-10-16T09:42:41.470Z,4.92
2018-10-16T09:45:11.050Z,7.05
2018-10-16T09:47:39.736Z,6.17
2018-10-16T09:50:09.571Z,5.80
2018-10-16T09:52:38.154Z,5.22
2018-10-16T09:55:08.171Z,4.67
2018-10-16T09:57:36.888Z,5.10
2018-10-16T10:00:08.617Z,5.23
2018-10-16T10:02:37.298Z,4.15
2018-10-16T10:05:05.978Z,5.60
2018-10-16T10:07:34.598Z,5.00
2018-10-16T10:10:03.259Z,5.75
2018-10-16T10:12:31.813Z,5.58
2018-10-16T10:15:00.493Z,5.75
2018-10-16T10:17:29.062Z,4.15
2018-10-16T10:19:57.644Z,4.70
2018-10-16T10:22:26.217Z,4.72
2018-10-16T10:24:54.866Z,4.80
2018-10-16T10:27:23.383Z,5.23
2018-10-16T10:29:52.047Z,4.37
2018-10-16T10:32:20.600Z,5.70
2018-10-16T10:34:49.422Z,5.72
2018-10-16T10:37:18.011Z,4.47
2018-10-16T10:39:46.587Z,4.12
2018-10-16T10:42:15.339Z,6.20
2018-10-16T10:44:43.908Z,5.75
2018-10-16T10:47:12.520Z,4.85
2018-10-16T10:49:41.101Z,4.87
2018-10-16T10:52:09.708Z,4.73
2018-10-16T10:54:38.280Z,4.70
2018-10-16T10:57:12.613Z,4.13
2018-10-16T10:59:41.249Z,4.12
2018-10-16T11:02:09.877Z,3.92
2018-10-16T11:04:38.441Z,4.28
2018-10-16T11:07:07.193Z,4.87
2018-10-16T11:09:35.779Z,4.58
2018-10-16T11:12:04.586Z,5.17
2018-10-16T11:14:33.223Z,4.47
2018-10-16T11:17:01.902Z,4.78
2018-10-16T11:19:30.525Z,5.85
2018-10-16T11:21:59.094Z,6.42
2018-10-16T11:24:27.765Z,5.05
2018-10-16T11:26:56.376Z,4.83
2018-10-16T11:29:25.002Z,5.08
2018-10-16T11:31:53.632Z,6.70
2018-10-16T11:34:22.299Z,6.72
2018-10-16T11:36:50.937Z,3.90
2018-10-16T11:39:19.426Z,3.90
2018-10-16T11:41:48.028Z,4.65
2018-10-16T11:44:16.597Z,4.47
2018-10-16T11:46:45.255Z,6.03
2018-10-16T11:49:13.872Z,3.75
2018-10-16T11:51:42.477Z,4.55
2018-10-16T11:54:11.085Z,6.60
2018-10-16T11:56:39.917Z,4.72
2018-10-16T11:59:09.691Z,4.15
2018-10-16T12:01:38.370Z,4.90
2018-10-16T12:04:07.016Z,4.90
2018-10-16T12:06:35.691Z,4.12
2018-10-16T12:09:06.261Z,5.20
2018-10-16T12:11:35.571Z,5.60
2018-10-16T12:14:04.510Z,4.85
2018-10-16T12:16:36.868Z,4.60
2018-10-16T12:19:09.752Z,4.63
2018-10-16T12:21:38.326Z,6.35
2018-10-16T12:24:07.041Z,4.72
2018-10-16T12:26:35.631Z,4.95
2018-10-16T12:29:05.316Z,4.83
2018-10-16T12:31:34.064Z,4.87
2018-10-16T12:34:02.674Z,4.22
2018-10-16T12:36:31.283Z,5.87
2018-10-16T12:39:00.612Z,6.37
2018-10-16T12:41:29.416Z,4.03
2018-10-16T12:43:58.062Z,4.77
2018-10-16T12:46:26.625Z,4.15
2018-10-16T12:48:55.404Z,4.58
2018-10-16T12:51:23.988Z,4.97
2018-10-16T12:53:52.617Z,5.00
2018-10-16T12:56:21.191Z,6.47
2018-10-16T12:58:49.771Z,5.30
2018-10-16T13:01:18.428Z,4.72
2018-10-16T13:03:47.059Z,5.33
2018-10-16T13:06:15.648Z,4.50
2018-10-16T13:08:44.223Z,5.78
2018-10-16T13:11:12.897Z,5.40
2018-10-16T13:13:41.425Z,4.25
2018-10-16T13:16:10.067Z,5.00
2018-10-16T13:18:38.691Z,4.97
2018-10-16T13:21:07.459Z,4.70
2018-10-16T13:23:36.082Z,3.62
2018-10-16T13:26:04.866Z,4.37
2018-10-16T13:28:33.777Z,4.97
2018-10-16T13:31:02.407Z,4.60
2018-10-16T13:33:31.002Z,4.67
2018-10-16T13:35:59.562Z,4.80
2018-10-16T13:38:28.192Z,5.12
2018-10-16T13:40:56.961Z,5.53
2018-10-16T13:43:25.636Z,5.55
2018-10-16T13:45:54.580Z,4.80
2018-10-16T13:48:23.247Z,4.85
2018-10-16T13:50:51.984Z,3.60
2018-10-16T13:53:20.619Z,4.58
2018-10-16T13:55:49.332Z,5.10
2018-10-16T13:58:18.059Z,5.42
2018-10-16T14:00:46.595Z,3.60
2018-10-16T14:03:15.196Z,4.35
2018-10-16T14:05:43.831Z,5.40
2018-10-16T14:08:12.585Z,5.90
2018-10-16T14:10:43.302Z,6.28
2018-10-16T14:13:11.945Z,4.37
2018-10-16T14:15:40.464Z,7.97
2018-10-16T14:18:09.165Z,4.78
2018-10-16T14:20:39.335Z,4.37
2018-10-16T14:23:07.953Z,5.22
2018-10-16T14:25:36.499Z,4.60
2018-10-16T14:28:05.796Z,5.53
2018-10-16T14:30:34.414Z,5.30
2018-10-16T14:33:04.849Z,4.70
2018-10-16T14:35:33.565Z,5.03
2018-10-16T14:38:02.282Z,5.22
2018-10-16T14:40:31.041Z,3.93
2018-10-16T14:42:59.590Z,4.10
2018-10-16T14:45:28.142Z,6.67
2018-10-16T14:47:56.797Z,5.43
2018-10-16T14:50:25.420Z,4.70
2018-10-16T14:52:54.112Z,5.03
2018-10-16T14:55:22.673Z,4.73
2018-10-16T14:57:51.347Z,3.90
2018-10-16T15:00:20.469Z,4.75
2018-10-16T15:02:49.103Z,4.08
2018-10-16T15:05:17.758Z,4.60
2018-10-16T15:07:46.391Z,4.22
2018-10-16T15:10:15.111Z,4.70
2018-10-16T15:12:43.601Z,4.05
2018-10-16T15:15:12.230Z,5.55
2018-10-16T15:17:40.847Z,5.37
2018-10-16T15:20:10.301Z,6.83
2018-10-16T15:22:38.975Z,5.45
2018-10-16T15:25:08.655Z,5.25
2018-10-16T15:27:37.229Z,4.92
2018-10-16T15:30:07.736Z,4.17
2018-10-16T15:32:36.350Z,5.37
2018-10-16T15:35:06.233Z,5.53
2018-10-16T15:37:34.865Z,4.70
2018-10-16T15:40:03.642Z,4.30
2018-10-16T15:42:32.232Z,5.83
2018-10-16T15:45:00.874Z,4.50
2018-10-16T15:47:29.484Z,4.37
2018-10-16T15:49:58.331Z,6.85
2018-10-16T15:52:26.998Z,5.07
2018-10-16T15:54:55.644Z,5.42
2018-10-16T15:57:24.264Z,5.90
2018-10-16T15:59:52.842Z,6.30
2018-10-16T16:02:21.495Z,6.90
2018-10-16T16:04:50.159Z,4.80
2018-10-16T16:07:22.044Z,5.50
2018-10-16T16:09:50.657Z,6.62
2018-10-16T16:12:19.253Z,6.73
2018-10-16T16:14:47.868Z,5.10
2018-10-16T16:17:16.629Z,5.95
2018-10-16T16:19:45.271Z,6.70
2018-10-16T16:22:13.878Z,6.95
2018-10-16T16:24:42.414Z,6.20
2018-10-16T16:27:11.065Z,7.15
2018-10-16T16:29:39.621Z,6.58
2018-10-16T16:32:08.215Z,6.70
2018-10-16T16:34:36.837Z,8.00
2018-10-16T16:37:05.592Z,6.85
2018-10-16T16:39:35.237Z,6.28
2018-10-16T16:42:03.755Z,5.08
2018-10-16T16:44:32.717Z,7.10
2018-10-16T16:47:01.397Z,6.47
2018-10-16T16:49:29.938Z,6.72
2018-10-16T16:51:58.562Z,7.08
2018-10-16T16:54:27.113Z,6.50
2018-10-16T16:56:55.731Z,6.03
2018-10-16T16:59:24.341Z,6.87
2018-10-16T17:01:53.137Z,7.10
2018-10-16T17:04:21.809Z,6.78
2018-10-16T17:06:50.470Z,7.85
2018-10-16T17:09:18.975Z,6.67
2018-10-16T17:11:47.524Z,8.05
2018-10-16T17:14:16.154Z,7.28
2018-10-16T17:16:44.715Z,8.87
2018-10-16T17:19:13.288Z,7.30
2018-10-16T17:21:41.887Z,8.08
2018-10-16T17:24:10.427Z,8.90
2018-10-16T17:26:39.213Z,8.30
2018-10-16T17:29:08.097Z,8.80
2018-10-16T17:31:36.679Z,8.20
2018-10-16T17:34:05.603Z,7.87
2018-10-16T17:36:34.146Z,7.47
2018-10-16T17:39:03.263Z,7.85
2018-10-16T17:41:31.831Z,8.35
2018-10-16T17:44:00.416Z,8.28
2018-10-16T17:46:28.950Z,7.33
2018-10-16T17:48:57.484Z,8.90
2018-10-16T17:51:26.042Z,10.45
2018-10-16T17:53:54.689Z,10.65
2018-10-16T17:56:23.193Z,10.28
2018-10-16T17:58:51.836Z,11.08
2018-10-16T18:01:20.451Z,9.00
2018-10-16T18:03:49.150Z,10.23
2018-10-16T18:06:17.823Z,11.60
2018-10-16T18:08:46.361Z,9.58
2018-10-16T18:11:14.944Z,13.53
2018-10-16T18:13:43.574Z,9.90
2018-10-16T18:16:12.168Z,10.80
2018-10-16T18:18:40.706Z,11.60
2018-10-16T18:21:09.432Z,9.80
2018-10-16T18:23:38.039Z,12.40
2018-10-16T18:26:06.644Z,10.82
2018-10-16T18:28:35.253Z,12.03
2018-10-16T18:31:03.852Z,10.63
2018-10-16T18:33:33.256Z,11.20
2018-10-16T18:36:02.030Z,11.48
2018-10-16T18:38:30.648Z,9.93
2018-10-16T18:40:59.212Z,11.45
2018-10-16T18:43:27.786Z,10.18
2018-10-16T18:45:56.389Z,9.63
2018-10-16T18:48:24.995Z,10.20
2018-10-16T18:50:53.937Z,12.30
2018-10-16T18:53:22.412Z,11.15
2018-10-16T18:55:51.004Z,11.22
2018-10-16T18:58:19.584Z,14.03
2018-10-16T19:00:48.162Z,10.78
2018-10-16T19:03:16.783Z,11.38
2018-10-16T19:05:45.364Z,11.55
2018-10-16T19:08:13.906Z,13.65
2018-10-16T19:10:42.566Z,11.03
2018-10-16T19:13:11.153Z,11.00
2018-10-16T19:15:39.703Z,10.48
2018-10-16T19:18:08.253Z,10.10
2018-10-16T19:20:37.008Z,11.68
2018-10-16T19:23:05.852Z,11.78
2018-10-16T19:25:34.397Z,11.70
2018-10-16T19:28:02.944Z,10.40
2018-10-16T19:30:31.493Z,14.53
2018-10-16T19:33:00.211Z,11.83
2018-10-16T19:35:28.731Z,11.40
2018-10-16T19:37:57.424Z,12.10
2018-10-16T19:40:25.903Z,13.93
2018-10-16T19:42:54.482Z,10.93
2018-10-16T19:45:23.075Z,11.68
2018-10-16T19:47:51.697Z,11.55
2018-10-16T19:50:20.230Z,12.35
2018-10-16T19:52:48.951Z,13.48
2018-10-16T19:55:17.571Z,11.22
2018-10-16T19:57:46.419Z,11.22
2018-10-16T20:00:14.993Z,11.60
2018-10-16T20:02:43.602Z,12.90
2018-10-16T20:05:12.182Z,10.13
2018-10-16T20:07:40.734Z,12.00
2018-10-16T20:10:11.033Z,10.80
2018-10-16T20:12:39.655Z,10.30
2018-10-16T20:15:09.450Z,10.07
2018-10-16T20:17:38.018Z,10.25
2018-10-16T20:20:07.478Z,11.40
2018-10-16T20:22:36.025Z,9.93
2018-10-16T20:25:04.692Z,11.00
2018-10-16T20:27:33.297Z,11.65
2018-10-16T20:30:01.769Z,11.60
2018-10-16T20:32:30.295Z,10.88
2018-10-16T20:34:58.862Z,9.30
2018-10-16T20:37:27.387Z,11.95
2018-10-16T20:39:55.914Z,10.70
2018-10-16T20:42:24.450Z,11.78
2018-10-16T20:44:52.940Z,12.25
2018-10-16T20:47:21.429Z,12.20
2018-10-16T20:49:50.000Z,14.55
2018-10-16T20:52:18.527Z,17.30
2018-10-16T20:54:47.021Z,19.30
2018-10-16T20:57:15.533Z,18.10
2018-10-16T20:59:44.756Z,25.37
2018-10-16T21:02:13.315Z,22.93
2018-10-16T21:04:41.906Z,27.25
2018-10-16T21:07:10.396Z,30.27
2018-10-16T21:09:38.938Z,22.62
2018-10-16T21:12:07.836Z,24.27
2018-10-16T21:14:36.486Z,24.60
2018-10-16T21:17:05.044Z,23.67
2018-10-16T21:19:33.602Z,23.07
2018-10-16T21:22:02.238Z,19.97
2018-10-16T21:24:30.867Z,22.35
2018-10-16T21:27:07.469Z,17.87
2018-10-16T21:29:36.234Z,17.90
2018-10-16T21:32:05.601Z,15.98
2018-10-16T21:34:34.291Z,15.25
2018-10-16T21:37:04.275Z,15.00
2018-10-16T21:39:32.743Z,13.48
2018-10-16T21:42:01.271Z,13.10
2018-10-16T21:44:29.872Z,15.10
2018-10-16T21:46:58.416Z,14.63
2018-10-16T21:49:26.991Z,14.03
2018-10-16T21:51:55.473Z,13.10
2018-10-16T21:54:24.077Z,12.55
2018-10-16T21:56:52.535Z,14.40
2018-10-16T21:59:21.164Z,13.18
2018-10-16T22:01:54.987Z,11.45
2018-10-16T22:04:23.539Z,13.60
2018-10-16T22:06:52.034Z,15.20
2018-10-16T22:09:20.568Z,14.63
2018-10-16T22:11:49.356Z,11.80
2018-10-16T22:14:17.939Z,13.32
2018-10-16T22:16:46.498Z,11.75
2018-10-16T22:19:15.108Z,11.28
2018-10-16T22:21:43.627Z,12.35
2018-10-16T22:24:12.199Z,11.08
2018-10-16T22:26:40.793Z,11.88
2018-10-16T22:29:09.318Z,12.03
2018-10-16T22:31:37.895Z,12.05
2018-10-16T22:34:06.807Z,12.53
2018-10-16T22:36:35.443Z,11.68
2018-10-16T22:39:05.367Z,11.73
2018-10-16T22:41:33.842Z,12.00
2018-10-16T22:44:02.391Z,12.70
2018-10-16T22:46:30.900Z,11.90
2018-10-16T22:48:59.457Z,12.35
2018-10-16T22:51:28.040Z,13.75
2018-10-16T22:53:56.532Z,12.23
2018-10-16T22:56:25.080Z,11.55
2018-10-16T22:58:53.647Z,12.58
2018-10-16T23:01:22.206Z,11.33
2018-10-16T23:03:50.837Z,14.03
2018-10-16T23:06:19.350Z,12.60
2018-10-16T23:08:47.950Z,14.85
2018-10-16T23:11:16.623Z,12.95
2018-10-16T23:13:45.070Z,13.78
2018-10-16T23:16:13.573Z,13.00
2018-10-16T23:18:42.180Z,14.47
2018-10-16T23:21:10.717Z,13.90
2018-10-16T23:23:39.437Z,13.67
2018-10-16T23:26:08.554Z,11.75
2018-10-16T23:28:37.485Z,14.40
2018-10-16T23:31:06.085Z,13.60
2018-10-16T23:33:34.624Z,12.37
2018-10-16T23:36:03.231Z,11.88
2018-10-16T23:38:31.760Z,13.25
2018-10-16T23:41:00.395Z,12.28
2018-10-16T23:43:29.041Z,12.95
2018-10-16T23:45:57.519Z,12.73
2018-10-16T23:48:26.039Z,13.68
2018-10-16T23:50:54.528Z,12.93
2018-10-16T23:53:23.067Z,13.22
2018-10-16T23:55:51.577Z,13.05
2018-10-16T23:58:20.114Z,13.30
